createdAt,value
2023-05-10T00:02:32.760Z,56.80
2023-05-10T00:05:35.905Z,56.70
2023-05-10T00:08:38.906Z,56.70
2023-05-10T00:11:42.074Z,56.90
2023-05-10T00:14:45.079Z,57.00
2023-05-10T00:17:49.709Z,57.20
2023-05-10T00:20:52.875Z,57.20
2023-05-10T00:23:56.104Z,57.70
2023-05-10T00:26:59.196Z,57.50
2023-05-10T00:30:02.252Z,57.30
2023-05-10T00:33:07.091Z,57.10
2023-05-10T00:36:10.538Z,57.00
2023-05-10T00:39:16.335Z,57.00
2023-05-10T00:42:19.365Z,57.30
2023-05-10T00:45:22.602Z,57.40
2023-05-10T00:48:27.115Z,57.40
2023-05-10T00:51:30.289Z,57.20
2023-05-10T00:54:33.484Z,57.20
2023-05-10T00:57:36.584Z,57.60
2023-05-10T01:00:44.298Z,57.60
2023-05-10T01:03:49.139Z,57.70
2023-05-10T01:06:52.195Z,57.60
2023-05-10T01:09:55.446Z,57.90
2023-05-10T01:13:01.380Z,58.00
2023-05-10T01:16:04.586Z,58.30
2023-05-10T01:19:19.109Z,58.20
2023-05-10T01:22:44.668Z,58.20
2023-05-10T01:26:08.197Z,58.30
2023-05-10T01:29:26.637Z,58.40
2023-05-10T01:32:37.415Z,58.40
2023-05-10T01:35:45.155Z,58.50
2023-05-10T01:38:53.726Z,58.50
2023-05-10T01:42:04.421Z,58.60
2023-05-10T01:45:15.900Z,58.70
2023-05-10T01:48:21.985Z,58.80
2023-05-10T01:51:28.450Z,59.00
2023-05-10T01:54:33.190Z,59.10
2023-05-10T01:57:37.936Z,59.50
2023-05-10T02:00:46.328Z,59.80
2023-05-10T02:03:52.768Z,59.70
2023-05-10T02:06:57.097Z,59.60
2023-05-10T02:10:01.334Z,59.70
2023-05-10T02:13:05.380Z,59.80
2023-05-10T02:16:09.323Z,59.90
2023-05-10T02:19:16.203Z,59.80
2023-05-10T02:22:20.404Z,60.00
2023-05-10T02:25:25.449Z,60.00
2023-05-10T02:28:29.546Z,60.00
2023-05-10T02:31:34.625Z,60.00
2023-05-10T02:34:40.491Z,60.10
2023-05-10T02:37:43.999Z,60.20
2023-05-10T02:40:48.357Z,60.40
2023-05-10T02:43:54.107Z,60.40
2023-05-10T02:46:57.952Z,60.50
2023-05-10T02:50:02.626Z,60.50
2023-05-10T02:53:12.519Z,60.40
2023-05-10T02:56:22.649Z,60.30
2023-05-10T02:59:28.580Z,60.30
2023-05-10T03:02:31.968Z,60.50
2023-05-10T03:05:36.594Z,60.30
2023-05-10T03:08:39.800Z,60.40
2023-05-10T03:11:52.522Z,60.30
2023-05-10T03:15:02.691Z,60.50
2023-05-10T03:18:11.688Z,60.70
2023-05-10T03:21:19.885Z,60.50
2023-05-10T03:24:25.072Z,60.60
2023-05-10T03:27:29.873Z,60.70
2023-05-10T03:30:33.657Z,60.80
2023-05-10T03:33:36.680Z,60.60
2023-05-10T03:36:41.394Z,60.70
2023-05-10T03:39:44.534Z,60.70
2023-05-10T03:42:47.710Z,60.80
2023-05-10T03:45:50.710Z,61.10
2023-05-10T03:48:53.753Z,60.80
2023-05-10T03:51:58.337Z,60.70
2023-05-10T03:55:01.405Z,60.80
2023-05-10T03:58:04.490Z,61.10
2023-05-10T04:01:07.548Z,61.00
2023-05-10T04:04:10.944Z,60.80
2023-05-10T04:07:15.330Z,60.80
2023-05-10T04:10:18.762Z,61.10
2023-05-10T04:13:22.245Z,60.80
2023-05-10T04:16:25.447Z,60.90
2023-05-10T04:19:31.788Z,60.70
2023-05-10T04:22:36.216Z,60.70
2023-05-10T04:25:39.221Z,60.60
2023-05-10T04:28:42.208Z,60.60
2023-05-10T04:31:45.397Z,60.70
2023-05-10T04:34:49.292Z,60.50
2023-05-10T04:37:53.667Z,60.50
2023-05-10T04:40:56.942Z,60.40
2023-05-10T04:44:00.048Z,60.40
2023-05-10T04:50:31.575Z,60.20
2023-05-10T04:53:36.124Z,60.10
2023-05-10T04:56:39.334Z,59.80
2023-05-10T04:59:42.310Z,59.80
2023-05-10T05:02:46.355Z,59.30
2023-05-10T05:05:49.444Z,59.00
2023-05-10T05:08:53.914Z,58.70
2023-05-10T05:11:57.080Z,58.20
2023-05-10T05:15:00.241Z,58.00
2023-05-10T05:18:03.547Z,57.50
2023-05-10T05:21:16.193Z,56.90
2023-05-10T05:24:20.586Z,56.20
2023-05-10T05:27:25.091Z,56.30
2023-05-10T05:30:28.217Z,55.70
2023-05-10T05:33:31.218Z,55.10
2023-05-10T05:36:35.839Z,54.60
2023-05-10T05:39:41.386Z,54.40
2023-05-10T05:42:44.437Z,53.90
2023-05-10T05:45:47.442Z,53.30
2023-05-10T05:48:50.665Z,53.20
2023-05-10T05:51:53.626Z,52.90
2023-05-10T05:54:57.999Z,52.70
2023-05-10T05:58:01.017Z,52.60
2023-05-10T06:01:04.318Z,52.20
2023-05-10T06:04:07.438Z,52.10
2023-05-10T06:07:10.743Z,51.50
2023-05-10T06:10:15.030Z,51.20
2023-05-10T06:13:18.161Z,51.20
2023-05-10T06:16:21.182Z,50.90
2023-05-10T06:19:24.247Z,51.30
2023-05-10T06:22:27.224Z,50.80
2023-05-10T06:25:31.596Z,51.00
2023-05-10T06:28:34.686Z,49.80
2023-05-10T06:31:37.788Z,49.70
2023-05-10T06:34:44.300Z,49.90
2023-05-10T06:37:47.669Z,50.20
2023-05-10T06:40:52.018Z,50.00
2023-05-10T06:43:55.061Z,50.30
2023-05-10T06:46:58.119Z,50.40
2023-05-10T06:50:01.555Z,50.20
2023-05-10T06:53:04.814Z,49.70
2023-05-10T06:56:09.215Z,49.50
2023-05-10T06:59:13.525Z,49.40
2023-05-10T07:02:17.478Z,49.20
2023-05-10T07:05:21.374Z,49.20
2023-05-10T07:08:24.583Z,49.60
2023-05-10T07:11:29.059Z,49.30
2023-05-10T07:14:32.012Z,49.20
2023-05-10T07:17:36.296Z,49.30
2023-05-10T07:20:39.503Z,50.00
2023-05-10T07:23:44.829Z,50.50
2023-05-10T07:26:49.601Z,50.00
2023-05-10T07:29:52.582Z,50.00
2023-05-10T07:32:56.398Z,50.20
2023-05-10T07:35:59.547Z,50.20
2023-05-10T07:39:04.288Z,50.30
2023-05-10T07:42:09.277Z,50.20
2023-05-10T07:45:12.583Z,49.70
2023-05-10T07:48:15.597Z,50.10
2023-05-10T07:51:18.553Z,50.00
2023-05-10T07:54:21.597Z,50.10
2023-05-10T07:57:26.001Z,50.70
2023-05-10T08:00:29.467Z,49.90
2023-05-10T08:03:32.545Z,50.00
2023-05-10T08:06:35.675Z,49.60
2023-05-10T08:09:38.852Z,50.20
2023-05-10T08:12:43.170Z,49.70
2023-05-10T08:15:46.191Z,49.70
2023-05-10T08:18:50.257Z,50.50
2023-05-10T08:21:56.311Z,49.90
2023-05-10T08:24:59.339Z,49.90
2023-05-10T08:28:05.173Z,50.30
2023-05-10T08:31:08.356Z,49.70
2023-05-10T08:34:11.682Z,48.90
2023-05-10T08:37:14.930Z,49.40
2023-05-10T08:40:17.879Z,49.30
2023-05-10T08:43:22.305Z,48.80
2023-05-10T08:46:25.563Z,48.80
2023-05-10T08:49:32.406Z,48.00
2023-05-10T08:52:40.020Z,48.50
2023-05-10T08:55:43.798Z,48.80
2023-05-10T08:58:49.877Z,48.60
2023-05-10T09:01:54.543Z,48.40
2023-05-10T09:04:57.700Z,47.80
2023-05-10T09:08:01.430Z,47.70
2023-05-10T09:11:04.789Z,48.60
2023-05-10T09:14:13.955Z,47.90
2023-05-10T09:17:17.263Z,47.20
2023-05-10T09:20:21.388Z,47.90
2023-05-10T09:23:29.496Z,47.30
2023-05-10T09:26:32.602Z,47.70
2023-05-10T09:29:43.964Z,47.40
2023-05-10T09:32:49.941Z,47.20
2023-05-10T09:35:54.280Z,46.80
2023-05-10T09:38:57.252Z,46.80
2023-05-10T09:42:01.728Z,47.70
2023-05-10T09:45:08.821Z,47.40
2023-05-10T09:48:11.805Z,47.10
2023-05-10T09:51:22.025Z,47.50
2023-05-10T09:54:25.595Z,47.00
2023-05-10T09:57:28.618Z,47.50
2023-05-10T10:00:38.395Z,46.80
2023-05-10T10:03:44.855Z,45.90
2023-05-10T10:06:47.831Z,46.20
2023-05-10T10:09:50.990Z,46.60
2023-05-10T10:12:54.050Z,46.50
2023-05-10T10:15:58.991Z,46.30
2023-05-10T10:19:02.677Z,46.90
2023-05-10T10:22:05.882Z,46.10
2023-05-10T10:25:10.281Z,46.10
2023-05-10T10:28:26.065Z,46.60
2023-05-10T10:31:39.749Z,46.10
2023-05-10T10:34:43.071Z,45.40
2023-05-10T10:37:47.497Z,45.60
2023-05-10T10:41:03.518Z,45.20
2023-05-10T10:44:28.510Z,44.90
2023-05-10T10:47:34.206Z,44.80
2023-05-10T10:50:46.781Z,45.60
2023-05-10T10:53:50.570Z,45.20
2023-05-10T10:57:14.959Z,44.90
2023-05-10T11:00:26.530Z,45.30
2023-05-10T11:03:30.881Z,46.00
2023-05-10T11:06:35.564Z,46.10
2023-05-10T11:09:42.228Z,45.70
2023-05-10T11:12:54.343Z,44.80
2023-05-10T11:15:59.835Z,44.90
2023-05-10T11:19:06.911Z,44.80
2023-05-10T11:22:16.347Z,44.60
2023-05-10T11:25:19.925Z,44.10
2023-05-10T11:28:23.034Z,44.30
2023-05-10T11:31:28.246Z,44.20
2023-05-10T11:34:34.473Z,44.50
2023-05-10T11:37:39.021Z,44.10
2023-05-10T11:40:44.497Z,44.60
2023-05-10T11:43:49.885Z,44.80
2023-05-10T11:46:53.917Z,45.20
2023-05-10T11:49:59.121Z,45.30
2023-05-10T11:53:02.095Z,44.10
2023-05-10T11:56:06.355Z,43.50
2023-05-10T11:59:09.649Z,43.30
2023-05-10T12:02:14.299Z,42.90
2023-05-10T12:05:19.107Z,43.30
2023-05-10T12:08:24.413Z,42.60
2023-05-10T12:11:28.403Z,42.80
2023-05-10T12:14:34.417Z,42.70
2023-05-10T12:17:41.914Z,42.70
2023-05-10T12:20:47.610Z,42.60
2023-05-10T12:23:53.375Z,42.60
2023-05-10T12:26:56.565Z,42.50
2023-05-10T12:30:01.885Z,42.80
2023-05-10T12:33:09.635Z,41.90
2023-05-10T12:36:15.559Z,41.40
2023-05-10T12:39:18.738Z,42.10
2023-05-10T12:42:21.846Z,42.10
2023-05-10T12:45:24.835Z,42.60
2023-05-10T12:48:29.669Z,42.70
2023-05-10T12:51:34.158Z,42.50
2023-05-10T12:54:37.451Z,42.20
2023-05-10T12:57:40.451Z,41.90
2023-05-10T13:00:44.710Z,41.70
2023-05-10T13:03:47.717Z,41.90
2023-05-10T13:06:52.023Z,41.70
2023-05-10T13:09:54.957Z,42.10
2023-05-10T13:12:57.962Z,42.00
2023-05-10T13:16:00.966Z,41.60
2023-05-10T13:19:06.118Z,41.90
2023-05-10T13:22:10.588Z,41.60
2023-05-10T13:25:13.903Z,41.80
2023-05-10T13:28:16.904Z,41.80
2023-05-10T13:31:20.041Z,42.20
2023-05-10T13:34:23.172Z,42.90
2023-05-10T13:37:27.920Z,42.00
2023-05-10T13:40:31.921Z,42.10
2023-05-10T13:43:34.941Z,42.00
2023-05-10T13:46:39.522Z,41.90
2023-05-10T13:49:42.560Z,42.20
2023-05-10T13:52:46.890Z,41.10
2023-05-10T13:55:50.043Z,41.30
2023-05-10T13:58:53.295Z,41.50
2023-05-10T14:01:56.371Z,41.30
2023-05-10T14:04:59.408Z,41.20
2023-05-10T14:08:04.687Z,41.40
2023-05-10T14:11:07.719Z,40.60
2023-05-10T14:14:10.745Z,40.90
2023-05-10T14:17:13.848Z,41.70
2023-05-10T14:20:17.024Z,40.80
2023-05-10T14:23:25.018Z,40.60
2023-05-10T14:26:28.789Z,40.80
2023-05-10T14:29:31.951Z,40.80
2023-05-10T14:32:35.143Z,40.00
2023-05-10T14:35:38.766Z,40.10
2023-05-10T14:38:43.133Z,39.20
2023-05-10T14:41:46.684Z,39.80
2023-05-10T14:44:49.648Z,39.60
2023-05-10T14:47:52.846Z,39.40
2023-05-10T14:50:55.819Z,40.40
2023-05-10T14:54:00.552Z,40.60
2023-05-10T14:57:03.523Z,40.00
2023-05-10T15:00:07.716Z,39.60
2023-05-10T15:03:11.535Z,39.90
2023-05-10T15:06:16.598Z,39.90
2023-05-10T15:09:21.302Z,40.40
2023-05-10T15:12:24.364Z,40.30
2023-05-10T15:15:28.327Z,40.90
2023-05-10T15:18:31.439Z,40.50
2023-05-10T15:21:39.707Z,40.80
2023-05-10T15:24:44.612Z,41.40
2023-05-10T15:27:49.137Z,41.80
2023-05-10T15:30:52.219Z,42.20
2023-05-10T15:34:00.067Z,41.80
2023-05-10T15:37:03.031Z,41.90
2023-05-10T15:40:08.754Z,41.80
2023-05-10T15:43:11.722Z,42.20
2023-05-10T15:46:14.684Z,42.10
2023-05-10T15:49:18.317Z,42.60
2023-05-10T15:52:23.721Z,42.80
2023-05-10T15:55:28.204Z,43.00
2023-05-10T15:58:31.663Z,43.00
2023-05-10T16:01:35.426Z,43.30
2023-05-10T16:04:39.097Z,42.90
2023-05-10T16:07:42.360Z,43.40
2023-05-10T16:10:46.799Z,42.80
2023-05-10T16:13:49.722Z,42.80
2023-05-10T16:16:52.827Z,42.80
2023-05-10T16:19:58.275Z,43.20
2023-05-10T16:23:04.976Z,43.80
2023-05-10T16:26:09.341Z,44.20
2023-05-10T16:29:12.283Z,43.70
2023-05-10T16:32:15.276Z,44.10
2023-05-10T16:35:18.437Z,44.20
2023-05-10T16:38:21.807Z,44.40
2023-05-10T16:41:26.479Z,46.40
2023-05-10T16:44:29.444Z,46.80
2023-05-10T16:47:32.481Z,47.60
2023-05-10T16:50:35.523Z,48.40
2023-05-10T16:53:38.818Z,48.80
2023-05-10T16:56:43.199Z,49.10
2023-05-10T16:59:46.127Z,50.10
2023-05-10T17:02:49.565Z,53.50
2023-05-10T17:05:52.634Z,54.20
2023-05-10T17:08:55.620Z,55.30
2023-05-10T17:12:00.101Z,55.50
2023-05-10T17:15:03.207Z,56.20
2023-05-10T17:18:07.448Z,56.30
2023-05-10T17:21:11.387Z,56.50
2023-05-10T17:24:15.426Z,56.50
2023-05-10T17:27:20.086Z,56.70
2023-05-10T17:30:26.385Z,56.90
2023-05-10T17:33:29.417Z,57.10
2023-05-10T17:36:32.440Z,57.80
2023-05-10T17:39:36.756Z,57.80
2023-05-10T17:42:41.927Z,58.00
2023-05-10T17:45:46.639Z,58.70
2023-05-10T17:48:49.672Z,59.00
2023-05-10T17:51:52.712Z,59.40
2023-05-10T17:54:55.817Z,59.50
2023-05-10T17:58:00.827Z,59.80
2023-05-10T18:01:03.933Z,60.00
2023-05-10T18:04:07.842Z,60.00
2023-05-10T18:07:11.192Z,60.20
2023-05-10T18:10:14.146Z,60.50
2023-05-10T18:13:18.634Z,60.90
2023-05-10T18:16:21.748Z,60.90
2023-05-10T18:19:25.710Z,61.30
2023-05-10T18:22:28.700Z,61.40
2023-05-10T18:25:31.930Z,61.40
2023-05-10T18:28:36.849Z,61.30
2023-05-10T18:31:40.262Z,61.70
2023-05-10T18:34:43.331Z,62.30
2023-05-10T18:37:46.503Z,62.00
2023-05-10T18:40:51.504Z,61.90
2023-05-10T18:43:56.032Z,62.30
2023-05-10T18:46:59.297Z,62.40
2023-05-10T18:50:03.896Z,62.40
2023-05-10T18:53:08.640Z,62.50
2023-05-10T18:56:11.746Z,62.60
2023-05-10T18:59:18.453Z,62.90
2023-05-10T19:02:22.876Z,62.90
2023-05-10T19:05:30.048Z,63.20
2023-05-10T19:08:33.168Z,63.30
2023-05-10T19:11:36.513Z,63.70
2023-05-10T19:14:40.999Z,63.80
2023-05-10T19:17:45.982Z,63.80
2023-05-10T19:20:49.140Z,63.90
2023-05-10T19:23:52.213Z,63.90
2023-05-10T19:26:56.416Z,64.10
2023-05-10T19:30:02.066Z,64.60
2023-05-10T19:33:05.540Z,64.50
2023-05-10T19:36:09.100Z,64.40
2023-05-10T19:39:13.026Z,64.50
2023-05-10T19:42:16.187Z,64.50
2023-05-10T19:45:20.959Z,64.70
2023-05-10T19:48:23.965Z,64.90
2023-05-10T19:51:27.647Z,65.00
2023-05-10T19:54:30.897Z,65.10
2023-05-10T19:57:34.135Z,65.30
2023-05-10T20:00:38.500Z,65.20
2023-05-10T20:03:41.565Z,65.30
2023-05-10T20:06:44.667Z,65.30
2023-05-10T20:09:47.823Z,65.40
2023-05-10T20:12:52.406Z,65.40
2023-05-10T20:15:58.659Z,65.50
2023-05-10T20:19:01.786Z,65.90
2023-05-10T20:22:05.315Z,66.10
2023-05-10T20:25:10.071Z,66.20
2023-05-10T20:28:13.112Z,66.30
2023-05-10T20:31:18.304Z,66.30
2023-05-10T20:34:21.331Z,66.40
2023-05-10T20:37:24.787Z,66.40
2023-05-10T20:40:28.103Z,66.50
2023-05-10T20:43:31.256Z,66.50
2023-05-10T20:46:35.870Z,66.60
2023-05-10T20:49:39.224Z,66.60
2023-05-10T20:52:42.976Z,66.70
2023-05-10T20:55:46.010Z,66.70
2023-05-10T20:58:49.184Z,66.90
2023-05-10T21:01:55.940Z,67.20
2023-05-10T21:05:00.784Z,67.50
2023-05-10T21:08:03.805Z,67.60
2023-05-10T21:11:06.903Z,67.70
2023-05-10T21:14:10.291Z,67.80
2023-05-10T21:17:14.829Z,67.90
2023-05-10T21:20:25.331Z,68.00
2023-05-10T21:23:28.688Z,68.20
2023-05-10T21:26:31.787Z,68.20
2023-05-10T21:29:34.957Z,68.40
2023-05-10T21:32:39.464Z,68.60
2023-05-10T21:35:42.975Z,68.70
2023-05-10T21:38:46.635Z,68.90
2023-05-10T21:41:49.937Z,69.00
2023-05-10T21:44:53.766Z,69.00
2023-05-10T21:47:58.301Z,69.00
2023-05-10T21:51:01.593Z,69.10
2023-05-10T21:54:05.259Z,69.30
2023-05-10T21:57:08.600Z,69.40
2023-05-10T22:00:18.094Z,69.60
2023-05-10T22:03:23.005Z,69.70
2023-05-10T22:06:26.300Z,69.80
2023-05-10T22:09:29.724Z,69.90
2023-05-10T22:12:32.818Z,70.10
2023-05-10T22:15:36.682Z,70.10
2023-05-10T22:18:41.311Z,70.00
2023-05-10T22:21:44.484Z,70.10
2023-05-10T22:24:47.665Z,70.00
2023-05-10T22:27:51.119Z,69.90
2023-05-10T22:30:54.244Z,69.90
2023-05-10T22:33:58.781Z,69.90
2023-05-10T22:37:03.673Z,69.80
2023-05-10T22:40:08.199Z,69.90
2023-05-10T22:43:11.249Z,70.00
2023-05-10T22:46:14.594Z,70.10
2023-05-10T22:49:19.117Z,70.20
2023-05-10T22:52:22.831Z,70.30
2023-05-10T22:55:26.172Z,70.20
2023-05-10T22:58:30.712Z,70.20
2023-05-10T23:01:33.854Z,70.20
2023-05-10T23:04:38.483Z,70.20
2023-05-10T23:07:41.638Z,70.30
2023-05-10T23:10:44.911Z,70.30
2023-05-10T23:13:48.076Z,70.40
2023-05-10T23:16:51.152Z,70.40
2023-05-10T23:19:55.767Z,70.40
2023-05-10T23:22:59.565Z,70.60
2023-05-10T23:26:04.212Z,70.60
2023-05-10T23:29:07.408Z,70.70
2023-05-10T23:32:10.772Z,70.90
2023-05-10T23:35:15.582Z,70.80
2023-05-10T23:38:19.006Z,71.00
2023-05-10T23:41:22.085Z,71.00
2023-05-10T23:44:25.212Z,71.10
2023-05-10T23:47:28.252Z,71.20
2023-05-10T23:50:33.024Z,71.20
2023-05-10T23:53:37.749Z,71.30
2023-05-10T23:56:40.792Z,71.40
2023-05-10T23:59:43.968Z,71.50
